sensor_id;sensor_type;location;lat;lon;timestamp;temperature;humidity
25138;DHT22;13112;50.986;4.354;2022-11-15T00:01:35;11.90;99.90
25138;DHT22;13112;50.986;4.354;2022-11-15T00:04:03;12.00;99.90
25138;DHT22;13112;50.986;4.354;2022-11-15T00:06:29;12.10;99.90
25138;DHT22;13112;50.986;4.354;2022-11-15T00:08:54;12.10;99.90
25138;DHT22;13112;50.986;4.354;2022-11-15T00:11:20;12.20;99.90
25138;DHT22;13112;50.986;4.354;2022-11-15T00:13:46;12.30;99.90
25138;DHT22;13112;50.986;4.354;2022-11-15T00:16:11;12.30;99.90
25138;DHT22;13112;50.986;4.354;2022-11-15T00:18:38;12.30;99.90
25138;DHT22;13112;50.986;4.354;2022-11-15T00:21:06;12.30;99.90
25138;DHT22;13112;50.986;4.354;2022-11-15T00:23:33;12.30;99.90
25138;DHT22;13112;50.986;4.354;2022-11-15T00:25:59;12.40;99.90
25138;DHT22;13112;50.986;4.354;2022-11-15T00:28:25;12.40;99.90
25138;DHT22;13112;50.986;4.354;2022-11-15T00:30:50;12.40;99.90
25138;DHT22;13112;50.986;4.354;2022-11-15T00:33:16;12.50;99.90
25138;DHT22;13112;50.986;4.354;2022-11-15T00:35:42;12.60;99.90
25138;DHT22;13112;50.986;4.354;2022-11-15T00:38:07;12.60;99.90
25138;DHT22;13112;50.986;4.354;2022-11-15T00:40:33;12.50;99.90
25138;DHT22;13112;50.986;4.354;2022-11-15T00:42:59;12.60;99.90
25138;DHT22;13112;50.986;4.354;2022-11-15T00:45:25;12.50;99.90
25138;DHT22;13112;50.986;4.354;2022-11-15T00:47:51;12.50;99.90
25138;DHT22;13112;50.986;4.354;2022-11-15T00:50:18;12.50;99.90
25138;DHT22;13112;50.986;4.354;2022-11-15T00:52:44;12.50;99.90
25138;DHT22;13112;50.986;4.354;2022-11-15T00:55:19;12.60;99.90
25138;DHT22;13112;50.986;4.354;2022-11-15T00:57:46;12.60;99.90
25138;DHT22;13112;50.986;4.354;2022-11-15T01:00:12;12.60;99.90
25138;DHT22;13112;50.986;4.354;2022-11-15T01:02:38;12.50;99.90
25138;DHT22;13112;50.986;4.354;2022-11-15T01:05:04;12.50;99.90
25138;DHT22;13112;50.986;4.354;2022-11-15T01:07:29;12.60;99.90
25138;DHT22;13112;50.986;4.354;2022-11-15T01:09:55;12.60;99.90
25138;DHT22;13112;50.986;4.354;2022-11-15T01:12:21;12.60;99.90
25138;DHT22;13112;50.986;4.354;2022-11-15T01:14:46;12.50;99.90
25138;DHT22;13112;50.986;4.354;2022-11-15T01:17:12;12.50;99.90
25138;DHT22;13112;50.986;4.354;2022-11-15T01:19:37;12.40;99.90
25138;DHT22;13112;50.986;4.354;2022-11-15T01:22:03;12.20;99.90
25138;DHT22;13112;50.986;4.354;2022-11-15T01:24:29;12.20;99.90
25138;DHT22;13112;50.986;4.354;2022-11-15T01:26:54;12.10;99.90
25138;DHT22;13112;50.986;4.354;2022-11-15T01:29:20;12.10;99.90
25138;DHT22;13112;50.986;4.354;2022-11-15T01:31:46;12.20;99.90
25138;DHT22;13112;50.986;4.354;2022-11-15T01:34:11;12.20;99.90
25138;DHT22;13112;50.986;4.354;2022-11-15T01:36:37;12.20;99.90
25138;DHT22;13112;50.986;4.354;2022-11-15T01:39:03;12.20;99.90
25138;DHT22;13112;50.986;4.354;2022-11-15T01:41:32;12.30;99.90
25138;DHT22;13112;50.986;4.354;2022-11-15T01:47:04;12.20;99.90
25138;DHT22;13112;50.986;4.354;2022-11-15T01:49:35;12.20;99.90
25138;DHT22;13112;50.986;4.354;2022-11-15T01:52:03;12.20;99.90
25138;DHT22;13112;50.986;4.354;2022-11-15T01:54:30;12.20;99.90
25138;DHT22;13112;50.986;4.354;2022-11-15T01:57:00;12.30;99.90
25138;DHT22;13112;50.986;4.354;2022-11-15T01:59:27;12.20;99.90
25138;DHT22;13112;50.986;4.354;2022-11-15T02:01:53;12.20;99.90
25138;DHT22;13112;50.986;4.354;2022-11-15T02:04:47;12.20;99.90
25138;DHT22;13112;50.986;4.354;2022-11-15T02:07:15;12.20;99.90
25138;DHT22;13112;50.986;4.354;2022-11-15T02:09:43;12.20;99.90
25138;DHT22;13112;50.986;4.354;2022-11-15T02:12:10;12.30;99.90
25138;DHT22;13112;50.986;4.354;2022-11-15T02:14:40;12.40;99.90
25138;DHT22;13112;50.986;4.354;2022-11-15T02:17:26;12.50;99.90
25138;DHT22;13112;50.986;4.354;2022-11-15T02:22:57;12.30;99.90
25138;DHT22;13112;50.986;4.354;2022-11-15T02:39:52;12.40;99.90
25138;DHT22;13112;50.986;4.354;2022-11-15T02:42:31;12.40;99.90
25138;DHT22;13112;50.986;4.354;2022-11-15T02:45:24;12.60;99.90
25138;DHT22;13112;50.986;4.354;2022-11-15T02:47:54;12.60;99.90
25138;DHT22;13112;50.986;4.354;2022-11-15T02:50:25;12.60;99.90
25138;DHT22;13112;50.986;4.354;2022-11-15T02:52:52;12.60;99.90
25138;DHT22;13112;50.986;4.354;2022-11-15T02:55:29;12.40;99.90
25138;DHT22;13112;50.986;4.354;2022-11-15T03:01:00;12.20;99.90
25138;DHT22;13112;50.986;4.354;2022-11-15T03:11:18;12.40;99.90
25138;DHT22;13112;50.986;4.354;2022-11-15T03:16:57;12.50;99.90
25138;DHT22;13112;50.986;4.354;2022-11-15T03:19:31;12.50;99.90
25138;DHT22;13112;50.986;4.354;2022-11-15T03:22:02;12.60;99.90
25138;DHT22;13112;50.986;4.354;2022-11-15T03:24:30;12.60;99.90
25138;DHT22;13112;50.986;4.354;2022-11-15T03:26:59;12.60;99.90
25138;DHT22;13112;50.986;4.354;2022-11-15T03:29:31;12.60;99.90
25138;DHT22;13112;50.986;4.354;2022-11-15T03:32:25;12.60;99.90
25138;DHT22;13112;50.986;4.354;2022-11-15T03:35:14;12.50;99.90
25138;DHT22;13112;50.986;4.354;2022-11-15T03:38:05;12.50;99.90
25138;DHT22;13112;50.986;4.354;2022-11-15T03:41:04;12.60;99.90
25138;DHT22;13112;50.986;4.354;2022-11-15T03:43:40;12.60;99.90
25138;DHT22;13112;50.986;4.354;2022-11-15T03:46:28;12.50;99.90
25138;DHT22;13112;50.986;4.354;2022-11-15T03:49:10;12.60;99.90
25138;DHT22;13112;50.986;4.354;2022-11-15T03:51:37;12.60;99.90
25138;DHT22;13112;50.986;4.354;2022-11-15T03:54:04;12.50;99.90
25138;DHT22;13112;50.986;4.354;2022-11-15T03:56:29;12.40;99.90
25138;DHT22;13112;50.986;4.354;2022-11-15T03:58:55;12.50;99.90
25138;DHT22;13112;50.986;4.354;2022-11-15T04:01:21;12.40;99.90
25138;DHT22;13112;50.986;4.354;2022-11-15T04:03:46;12.40;99.90
25138;DHT22;13112;50.986;4.354;2022-11-15T04:06:12;12.30;99.90
25138;DHT22;13112;50.986;4.354;2022-11-15T04:08:38;12.30;99.90
25138;DHT22;13112;50.986;4.354;2022-11-15T04:11:03;12.30;99.90
25138;DHT22;13112;50.986;4.354;2022-11-15T04:13:29;12.30;99.90
25138;DHT22;13112;50.986;4.354;2022-11-15T04:15:54;12.20;99.90
25138;DHT22;13112;50.986;4.354;2022-11-15T04:18:20;12.20;99.90
25138;DHT22;13112;50.986;4.354;2022-11-15T04:20:46;12.20;99.90
25138;DHT22;13112;50.986;4.354;2022-11-15T04:23:30;12.10;99.90
25138;DHT22;13112;50.986;4.354;2022-11-15T04:26:16;12.00;99.90
25138;DHT22;13112;50.986;4.354;2022-11-15T04:28:42;11.90;99.90
25138;DHT22;13112;50.986;4.354;2022-11-15T04:31:37;11.90;99.90
25138;DHT22;13112;50.986;4.354;2022-11-15T04:34:02;11.90;99.90
25138;DHT22;13112;50.986;4.354;2022-11-15T04:36:28;11.90;99.90
25138;DHT22;13112;50.986;4.354;2022-11-15T04:39:32;12.00;99.90
25138;DHT22;13112;50.986;4.354;2022-11-15T04:41:58;12.10;99.90
25138;DHT22;13112;50.986;4.354;2022-11-15T04:44:23;12.10;99.90
25138;DHT22;13112;50.986;4.354;2022-11-15T04:46:49;12.30;99.90
25138;DHT22;13112;50.986;4.354;2022-11-15T04:49:14;12.20;99.90
25138;DHT22;13112;50.986;4.354;2022-11-15T04:51:40;12.10;99.90
25138;DHT22;13112;50.986;4.354;2022-11-15T04:54:06;12.00;99.90
25138;DHT22;13112;50.986;4.354;2022-11-15T04:56:31;11.80;99.90
25138;DHT22;13112;50.986;4.354;2022-11-15T04:58:57;11.90;99.90
25138;DHT22;13112;50.986;4.354;2022-11-15T05:01:23;11.80;99.90
25138;DHT22;13112;50.986;4.354;2022-11-15T05:03:48;11.70;99.90
25138;DHT22;13112;50.986;4.354;2022-11-15T05:06:32;11.60;99.90
25138;DHT22;13112;50.986;4.354;2022-11-15T05:08:58;11.50;99.90
25138;DHT22;13112;50.986;4.354;2022-11-15T05:11:24;11.50;99.90
25138;DHT22;13112;50.986;4.354;2022-11-15T05:13:50;11.40;99.90
25138;DHT22;13112;50.986;4.354;2022-11-15T05:16:16;11.40;99.90
25138;DHT22;13112;50.986;4.354;2022-11-15T05:18:41;11.40;99.90
25138;DHT22;13112;50.986;4.354;2022-11-15T05:21:10;11.30;99.90
25138;DHT22;13112;50.986;4.354;2022-11-15T05:23:35;11.20;99.90
25138;DHT22;13112;50.986;4.354;2022-11-15T05:26:02;11.20;99.90
25138;DHT22;13112;50.986;4.354;2022-11-15T05:28:28;11.10;99.90
25138;DHT22;13112;50.986;4.354;2022-11-15T05:31:00;11.00;99.90
25138;DHT22;13112;50.986;4.354;2022-11-15T05:33:26;11.00;99.90
25138;DHT22;13112;50.986;4.354;2022-11-15T05:36:00;11.00;99.90
25138;DHT22;13112;50.986;4.354;2022-11-15T05:38:28;10.90;99.90
25138;DHT22;13112;50.986;4.354;2022-11-15T05:40:54;10.80;99.90
25138;DHT22;13112;50.986;4.354;2022-11-15T05:43:20;10.80;99.90
25138;DHT22;13112;50.986;4.354;2022-11-15T05:45:46;10.70;99.90
25138;DHT22;13112;50.986;4.354;2022-11-15T05:48:12;10.70;99.90
25138;DHT22;13112;50.986;4.354;2022-11-15T05:50:41;10.70;99.90
25138;DHT22;13112;50.986;4.354;2022-11-15T05:53:07;10.70;99.90
25138;DHT22;13112;50.986;4.354;2022-11-15T05:55:33;10.60;99.90
25138;DHT22;13112;50.986;4.354;2022-11-15T05:58:00;10.60;99.90
25138;DHT22;13112;50.986;4.354;2022-11-15T06:00:26;10.60;99.90
25138;DHT22;13112;50.986;4.354;2022-11-15T06:02:52;10.60;99.90
25138;DHT22;13112;50.986;4.354;2022-11-15T06:05:17;10.60;99.90
25138;DHT22;13112;50.986;4.354;2022-11-15T06:07:43;10.50;99.90
25138;DHT22;13112;50.986;4.354;2022-11-15T06:10:09;10.50;99.90
25138;DHT22;13112;50.986;4.354;2022-11-15T06:12:35;10.40;99.90
25138;DHT22;13112;50.986;4.354;2022-11-15T06:15:00;10.40;99.90
25138;DHT22;13112;50.986;4.354;2022-11-15T06:17:26;10.40;99.90
25138;DHT22;13112;50.986;4.354;2022-11-15T06:19:52;10.50;99.90
25138;DHT22;13112;50.986;4.354;2022-11-15T06:22:17;10.50;99.90
25138;DHT22;13112;50.986;4.354;2022-11-15T06:24:43;10.50;99.90
25138;DHT22;13112;50.986;4.354;2022-11-15T06:27:10;10.40;99.90
25138;DHT22;13112;50.986;4.354;2022-11-15T06:29:36;10.30;99.90
25138;DHT22;13112;50.986;4.354;2022-11-15T06:32:02;10.30;99.90
25138;DHT22;13112;50.986;4.354;2022-11-15T06:34:27;10.30;99.90
25138;DHT22;13112;50.986;4.354;2022-11-15T06:36:53;10.20;99.90
25138;DHT22;13112;50.986;4.354;2022-11-15T06:39:18;10.20;99.90
25138;DHT22;13112;50.986;4.354;2022-11-15T06:41:44;10.10;99.90
25138;DHT22;13112;50.986;4.354;2022-11-15T06:44:10;10.00;99.90
25138;DHT22;13112;50.986;4.354;2022-11-15T06:46:35;10.00;99.90
25138;DHT22;13112;50.986;4.354;2022-11-15T06:49:01;9.90;99.90
25138;DHT22;13112;50.986;4.354;2022-11-15T06:51:27;9.80;99.90
25138;DHT22;13112;50.986;4.354;2022-11-15T06:53:52;9.70;99.90
25138;DHT22;13112;50.986;4.354;2022-11-15T06:56:18;9.60;99.90
25138;DHT22;13112;50.986;4.354;2022-11-15T06:58:43;9.50;99.90
25138;DHT22;13112;50.986;4.354;2022-11-15T07:01:11;9.50;99.90
25138;DHT22;13112;50.986;4.354;2022-11-15T07:03:39;9.40;99.90
25138;DHT22;13112;50.986;4.354;2022-11-15T07:06:05;9.40;99.90
25138;DHT22;13112;50.986;4.354;2022-11-15T07:08:31;9.40;99.90
25138;DHT22;13112;50.986;4.354;2022-11-15T07:11:06;9.40;99.90
25138;DHT22;13112;50.986;4.354;2022-11-15T07:13:33;9.40;99.90
25138;DHT22;13112;50.986;4.354;2022-11-15T07:16:06;9.40;99.90
25138;DHT22;13112;50.986;4.354;2022-11-15T07:18:34;9.30;99.90
25138;DHT22;13112;50.986;4.354;2022-11-15T07:21:04;9.40;99.90
25138;DHT22;13112;50.986;4.354;2022-11-15T07:23:30;9.40;99.90
25138;DHT22;13112;50.986;4.354;2022-11-15T07:25:57;9.40;99.90
25138;DHT22;13112;50.986;4.354;2022-11-15T07:28:24;9.50;99.90
25138;DHT22;13112;50.986;4.354;2022-11-15T07:30:50;9.50;99.90
25138;DHT22;13112;50.986;4.354;2022-11-15T07:33:15;9.50;99.90
25138;DHT22;13112;50.986;4.354;2022-11-15T07:35:41;9.60;99.90
25138;DHT22;13112;50.986;4.354;2022-11-15T07:38:08;9.70;99.90
25138;DHT22;13112;50.986;4.354;2022-11-15T07:40:33;9.70;99.90
25138;DHT22;13112;50.986;4.354;2022-11-15T07:43:04;9.70;99.90
25138;DHT22;13112;50.986;4.354;2022-11-15T07:45:31;9.70;99.90
25138;DHT22;13112;50.986;4.354;2022-11-15T07:47:59;9.70;99.90
25138;DHT22;13112;50.986;4.354;2022-11-15T07:50:25;9.70;99.90
25138;DHT22;13112;50.986;4.354;2022-11-15T07:52:56;9.80;99.90
25138;DHT22;13112;50.986;4.354;2022-11-15T07:55:26;9.80;99.90
25138;DHT22;13112;50.986;4.354;2022-11-15T07:57:52;9.80;99.90
25138;DHT22;13112;50.986;4.354;2022-11-15T08:00:18;9.90;99.90
25138;DHT22;13112;50.986;4.354;2022-11-15T08:02:44;10.00;99.90
25138;DHT22;13112;50.986;4.354;2022-11-15T08:05:10;10.10;99.90
25138;DHT22;13112;50.986;4.354;2022-11-15T08:07:36;10.20;99.90
25138;DHT22;13112;50.986;4.354;2022-11-15T08:10:04;10.20;99.90
25138;DHT22;13112;50.986;4.354;2022-11-15T08:12:31;10.30;99.90
25138;DHT22;13112;50.986;4.354;2022-11-15T08:14:57;10.30;99.90
25138;DHT22;13112;50.986;4.354;2022-11-15T08:17:25;10.40;99.90
25138;DHT22;13112;50.986;4.354;2022-11-15T08:19:51;10.40;99.90
25138;DHT22;13112;50.986;4.354;2022-11-15T08:22:17;10.40;99.90
25138;DHT22;13112;50.986;4.354;2022-11-15T08:24:44;10.50;99.90
25138;DHT22;13112;50.986;4.354;2022-11-15T08:27:09;10.60;99.90
25138;DHT22;13112;50.986;4.354;2022-11-15T08:29:48;10.70;99.90
25138;DHT22;13112;50.986;4.354;2022-11-15T08:32:13;10.70;99.90
25138;DHT22;13112;50.986;4.354;2022-11-15T08:34:39;10.70;99.90
25138;DHT22;13112;50.986;4.354;2022-11-15T08:37:05;10.80;99.90
25138;DHT22;13112;50.986;4.354;2022-11-15T08:39:31;10.80;99.90
25138;DHT22;13112;50.986;4.354;2022-11-15T08:41:57;10.90;99.90
25138;DHT22;13112;50.986;4.354;2022-11-15T08:44:23;11.10;99.90
25138;DHT22;13112;50.986;4.354;2022-11-15T08:46:49;11.10;99.90
25138;DHT22;13112;50.986;4.354;2022-11-15T08:49:16;11.00;99.90
25138;DHT22;13112;50.986;4.354;2022-11-15T08:51:42;11.00;99.90
25138;DHT22;13112;50.986;4.354;2022-11-15T08:54:07;11.00;99.90
25138;DHT22;13112;50.986;4.354;2022-11-15T08:56:33;11.00;99.90
25138;DHT22;13112;50.986;4.354;2022-11-15T08:58:59;11.00;99.90
25138;DHT22;13112;50.986;4.354;2022-11-15T09:01:24;11.00;99.90
25138;DHT22;13112;50.986;4.354;2022-11-15T09:03:50;11.10;99.90
25138;DHT22;13112;50.986;4.354;2022-11-15T09:06:16;11.10;99.90
25138;DHT22;13112;50.986;4.354;2022-11-15T09:08:42;11.30;99.90
25138;DHT22;13112;50.986;4.354;2022-11-15T09:11:09;11.40;99.90
25138;DHT22;13112;50.986;4.354;2022-11-15T09:13:35;11.50;99.90
25138;DHT22;13112;50.986;4.354;2022-11-15T09:16:05;11.50;99.90
25138;DHT22;13112;50.986;4.354;2022-11-15T09:18:31;11.40;99.90
25138;DHT22;13112;50.986;4.354;2022-11-15T09:21:00;11.30;99.90
25138;DHT22;13112;50.986;4.354;2022-11-15T09:23:27;11.30;99.90
25138;DHT22;13112;50.986;4.354;2022-11-15T09:26:02;11.20;99.90
25138;DHT22;13112;50.986;4.354;2022-11-15T09:28:28;11.40;99.90
25138;DHT22;13112;50.986;4.354;2022-11-15T09:31:02;11.80;99.90
25138;DHT22;13112;50.986;4.354;2022-11-15T09:33:28;12.10;99.90
25138;DHT22;13112;50.986;4.354;2022-11-15T09:35:57;12.40;99.90
25138;DHT22;13112;50.986;4.354;2022-11-15T09:38:24;13.20;99.90
25138;DHT22;13112;50.986;4.354;2022-11-15T09:40:53;14.10;99.90
25138;DHT22;13112;50.986;4.354;2022-11-15T09:46:19;13.90;99.90
25138;DHT22;13112;50.986;4.354;2022-11-15T09:48:56;13.80;99.90
25138;DHT22;13112;50.986;4.354;2022-11-15T09:51:37;13.80;99.90
25138;DHT22;13112;50.986;4.354;2022-11-15T09:54:33;13.90;99.90
25138;DHT22;13112;50.986;4.354;2022-11-15T10:02:18;14.60;99.90
25138;DHT22;13112;50.986;4.354;2022-11-15T10:04:46;14.30;99.90
25138;DHT22;13112;50.986;4.354;2022-11-15T10:07:19;14.60;99.90
25138;DHT22;13112;50.986;4.354;2022-11-15T10:09:54;14.60;99.90
25138;DHT22;13112;50.986;4.354;2022-11-15T10:12:22;14.50;99.90
25138;DHT22;13112;50.986;4.354;2022-11-15T10:14:50;14.20;99.90
25138;DHT22;13112;50.986;4.354;2022-11-15T10:20:11;13.50;99.90
25138;DHT22;13112;50.986;4.354;2022-11-15T10:22:48;13.70;99.90
25138;DHT22;13112;50.986;4.354;2022-11-15T10:25:24;13.80;99.90
25138;DHT22;13112;50.986;4.354;2022-11-15T10:30:42;13.90;99.90
25138;DHT22;13112;50.986;4.354;2022-11-15T10:33:34;14.00;99.90
25138;DHT22;13112;50.986;4.354;2022-11-15T10:38:57;14.40;99.90
25138;DHT22;13112;50.986;4.354;2022-11-15T10:46:35;14.10;99.90
25138;DHT22;13112;50.986;4.354;2022-11-15T10:49:24;14.20;99.90
25138;DHT22;13112;50.986;4.354;2022-11-15T10:54:49;13.40;99.90
25138;DHT22;13112;50.986;4.354;2022-11-15T10:57:23;13.30;99.90
25138;DHT22;13112;50.986;4.354;2022-11-15T10:59:55;13.30;99.90
25138;DHT22;13112;50.986;4.354;2022-11-15T11:05:00;13.30;99.90
25138;DHT22;13112;50.986;4.354;2022-11-15T11:07:29;13.10;99.90
25138;DHT22;13112;50.986;4.354;2022-11-15T11:10:19;13.00;99.90
25138;DHT22;13112;50.986;4.354;2022-11-15T11:12:45;13.20;99.90
25138;DHT22;13112;50.986;4.354;2022-11-15T11:15:13;13.50;99.90
25138;DHT22;13112;50.986;4.354;2022-11-15T11:20:48;13.40;99.90
25138;DHT22;13112;50.986;4.354;2022-11-15T11:26:33;13.30;99.90
25138;DHT22;13112;50.986;4.354;2022-11-15T11:40:19;14.60;99.90
25138;DHT22;13112;50.986;4.354;2022-11-15T11:43:23;14.80;99.90
25138;DHT22;13112;50.986;4.354;2022-11-15T11:46:14;15.00;99.90
25138;DHT22;13112;50.986;4.354;2022-11-15T11:49:30;14.90;99.90
25138;DHT22;13112;50.986;4.354;2022-11-15T11:54:42;14.10;99.90
25138;DHT22;13112;50.986;4.354;2022-11-15T11:57:25;13.90;99.90
25138;DHT22;13112;50.986;4.354;2022-11-15T12:00:30;13.60;99.90
25138;DHT22;13112;50.986;4.354;2022-11-15T12:03:11;13.50;99.90
25138;DHT22;13112;50.986;4.354;2022-11-15T12:05:50;13.40;99.90
25138;DHT22;13112;50.986;4.354;2022-11-15T12:14:12;13.30;99.90
25138;DHT22;13112;50.986;4.354;2022-11-15T12:16:42;13.30;99.90
25138;DHT22;13112;50.986;4.354;2022-11-15T12:19:08;13.30;99.90
25138;DHT22;13112;50.986;4.354;2022-11-15T12:27:17;13.30;99.90
25138;DHT22;13112;50.986;4.354;2022-11-15T12:29:48;13.30;99.90
25138;DHT22;13112;50.986;4.354;2022-11-15T12:34:52;13.40;99.90
25138;DHT22;13112;50.986;4.354;2022-11-15T12:45:36;13.30;99.90
25138;DHT22;13112;50.986;4.354;2022-11-15T12:50:54;13.40;99.90
25138;DHT22;13112;50.986;4.354;2022-11-15T13:01:09;13.40;99.90
25138;DHT22;13112;50.986;4.354;2022-11-15T13:03:36;13.50;99.90
25138;DHT22;13112;50.986;4.354;2022-11-15T13:12:00;13.80;99.90
25138;DHT22;13112;50.986;4.354;2022-11-15T13:17:21;14.00;99.90
25138;DHT22;13112;50.986;4.354;2022-11-15T13:20:33;14.10;99.90
25138;DHT22;13112;50.986;4.354;2022-11-15T13:29:12;13.70;99.90
25138;DHT22;13112;50.986;4.354;2022-11-15T13:31:27;13.60;99.90
25138;DHT22;13112;50.986;4.354;2022-11-15T13:33:57;13.70;99.90
25138;DHT22;13112;50.986;4.354;2022-11-15T13:36:41;13.60;99.90
25138;DHT22;13112;50.986;4.354;2022-11-15T13:39:29;13.60;99.90
25138;DHT22;13112;50.986;4.354;2022-11-15T13:41:55;13.70;99.90
25138;DHT22;13112;50.986;4.354;2022-11-15T13:44:23;13.60;99.90
25138;DHT22;13112;50.986;4.354;2022-11-15T13:49:30;13.60;99.90
25138;DHT22;13112;50.986;4.354;2022-11-15T13:51:56;13.60;99.90
25138;DHT22;13112;50.986;4.354;2022-11-15T13:57:08;13.70;99.90
25138;DHT22;13112;50.986;4.354;2022-11-15T13:59:43;13.60;99.90
25138;DHT22;13112;50.986;4.354;2022-11-15T14:02:19;13.60;99.90
25138;DHT22;13112;50.986;4.354;2022-11-15T14:04:50;13.60;99.90
25138;DHT22;13112;50.986;4.354;2022-11-15T14:07:22;13.50;99.90
25138;DHT22;13112;50.986;4.354;2022-11-15T14:09:48;13.50;99.90
25138;DHT22;13112;50.986;4.354;2022-11-15T14:12:27;13.60;99.90
25138;DHT22;13112;50.986;4.354;2022-11-15T14:14:54;13.60;99.90
25138;DHT22;13112;50.986;4.354;2022-11-15T14:17:40;13.50;99.90
25138;DHT22;13112;50.986;4.354;2022-11-15T14:22:55;13.40;99.90
25138;DHT22;13112;50.986;4.354;2022-11-15T14:25:26;13.40;99.90
25138;DHT22;13112;50.986;4.354;2022-11-15T14:30:42;13.40;99.90
25138;DHT22;13112;50.986;4.354;2022-11-15T14:33:31;13.20;99.90
25138;DHT22;13112;50.986;4.354;2022-11-15T14:36:02;13.20;99.90
25138;DHT22;13112;50.986;4.354;2022-11-15T14:38:28;13.10;99.90
25138;DHT22;13112;50.986;4.354;2022-11-15T14:40:54;13.10;99.90
25138;DHT22;13112;50.986;4.354;2022-11-15T14:43:21;13.00;99.90
25138;DHT22;13112;50.986;4.354;2022-11-15T14:45:47;12.90;99.90
25138;DHT22;13112;50.986;4.354;2022-11-15T14:48:13;12.80;99.90
25138;DHT22;13112;50.986;4.354;2022-11-15T14:50:39;12.70;99.90
25138;DHT22;13112;50.986;4.354;2022-11-15T14:53:05;12.60;99.90
25138;DHT22;13112;50.986;4.354;2022-11-15T14:55:34;12.60;99.90
25138;DHT22;13112;50.986;4.354;2022-11-15T14:58:03;12.60;99.90
25138;DHT22;13112;50.986;4.354;2022-11-15T15:00:30;12.50;99.90
25138;DHT22;13112;50.986;4.354;2022-11-15T15:02:56;12.40;99.90
25138;DHT22;13112;50.986;4.354;2022-11-15T15:07:50;12.30;99.90
25138;DHT22;13112;50.986;4.354;2022-11-15T15:10:17;12.20;99.90
25138;DHT22;13112;50.986;4.354;2022-11-15T15:12:44;12.20;99.90
25138;DHT22;13112;50.986;4.354;2022-11-15T15:15:15;12.10;99.90
25138;DHT22;13112;50.986;4.354;2022-11-15T15:17:42;12.10;99.90
25138;DHT22;13112;50.986;4.354;2022-11-15T15:20:09;12.10;99.90
25138;DHT22;13112;50.986;4.354;2022-11-15T15:22:35;12.00;99.90
25138;DHT22;13112;50.986;4.354;2022-11-15T15:25:01;12.00;99.90
25138;DHT22;13112;50.986;4.354;2022-11-15T15:27:27;12.00;99.90
25138;DHT22;13112;50.986;4.354;2022-11-15T15:29:53;12.00;99.90
25138;DHT22;13112;50.986;4.354;2022-11-15T15:32:19;12.00;99.90
25138;DHT22;13112;50.986;4.354;2022-11-15T15:34:44;12.00;99.90
25138;DHT22;13112;50.986;4.354;2022-11-15T15:37:25;12.00;99.90
25138;DHT22;13112;50.986;4.354;2022-11-15T15:39:52;12.00;99.90
25138;DHT22;13112;50.986;4.354;2022-11-15T15:42:19;11.90;99.90
25138;DHT22;13112;50.986;4.354;2022-11-15T15:44:45;11.90;99.90
25138;DHT22;13112;50.986;4.354;2022-11-15T15:47:22;11.90;99.90
25138;DHT22;13112;50.986;4.354;2022-11-15T15:49:48;11.90;99.90
25138;DHT22;13112;50.986;4.354;2022-11-15T15:52:14;11.90;99.90
25138;DHT22;13112;50.986;4.354;2022-11-15T15:54:40;11.90;99.90
25138;DHT22;13112;50.986;4.354;2022-11-15T15:57:07;11.90;99.90
25138;DHT22;13112;50.986;4.354;2022-11-15T15:59:33;11.90;99.90
25138;DHT22;13112;50.986;4.354;2022-11-15T16:01:59;11.80;99.90
25138;DHT22;13112;50.986;4.354;2022-11-15T16:04:25;11.80;99.90
25138;DHT22;13112;50.986;4.354;2022-11-15T16:06:51;11.80;99.90
25138;DHT22;13112;50.986;4.354;2022-11-15T16:09:19;11.80;99.90
25138;DHT22;13112;50.986;4.354;2022-11-15T16:12:07;11.90;99.90
25138;DHT22;13112;50.986;4.354;2022-11-15T16:14:33;11.90;99.90
25138;DHT22;13112;50.986;4.354;2022-11-15T16:16:59;11.90;99.90
25138;DHT22;13112;50.986;4.354;2022-11-15T16:19:24;11.80;99.90
25138;DHT22;13112;50.986;4.354;2022-11-15T16:21:50;11.80;99.90
25138;DHT22;13112;50.986;4.354;2022-11-15T16:24:17;11.90;99.90
25138;DHT22;13112;50.986;4.354;2022-11-15T16:26:43;11.90;99.90
25138;DHT22;13112;50.986;4.354;2022-11-15T16:29:10;11.90;99.90
25138;DHT22;13112;50.986;4.354;2022-11-15T16:31:36;11.90;99.90
25138;DHT22;13112;50.986;4.354;2022-11-15T16:34:02;11.90;99.90
25138;DHT22;13112;50.986;4.354;2022-11-15T16:36:30;11.80;99.90
25138;DHT22;13112;50.986;4.354;2022-11-15T16:38:58;11.80;99.90
25138;DHT22;13112;50.986;4.354;2022-11-15T16:41:24;11.90;99.90
25138;DHT22;13112;50.986;4.354;2022-11-15T16:43:50;11.90;99.90
25138;DHT22;13112;50.986;4.354;2022-11-15T16:46:18;11.90;99.90
25138;DHT22;13112;50.986;4.354;2022-11-15T16:48:44;11.90;99.90
25138;DHT22;13112;50.986;4.354;2022-11-15T16:51:10;11.90;99.90
25138;DHT22;13112;50.986;4.354;2022-11-15T16:53:36;11.90;99.90
25138;DHT22;13112;50.986;4.354;2022-11-15T16:56:02;11.90;99.90
25138;DHT22;13112;50.986;4.354;2022-11-15T16:58:28;11.90;99.90
25138;DHT22;13112;50.986;4.354;2022-11-15T17:00:55;11.90;99.90
25138;DHT22;13112;50.986;4.354;2022-11-15T17:03:22;11.90;99.90
25138;DHT22;13112;50.986;4.354;2022-11-15T17:05:49;11.90;99.90
25138;DHT22;13112;50.986;4.354;2022-11-15T17:08:14;11.90;99.90
25138;DHT22;13112;50.986;4.354;2022-11-15T17:10:40;11.90;99.90
25138;DHT22;13112;50.986;4.354;2022-11-15T17:13:09;11.90;99.90
25138;DHT22;13112;50.986;4.354;2022-11-15T17:15:36;12.00;99.90
25138;DHT22;13112;50.986;4.354;2022-11-15T17:18:02;12.00;99.90
25138;DHT22;13112;50.986;4.354;2022-11-15T17:20:30;11.90;99.90
25138;DHT22;13112;50.986;4.354;2022-11-15T17:23:01;11.90;99.90
25138;DHT22;13112;50.986;4.354;2022-11-15T17:25:26;12.00;99.90
25138;DHT22;13112;50.986;4.354;2022-11-15T17:27:52;12.00;99.90
25138;DHT22;13112;50.986;4.354;2022-11-15T17:30:18;12.00;99.90
25138;DHT22;13112;50.986;4.354;2022-11-15T17:32:44;12.00;99.90
25138;DHT22;13112;50.986;4.354;2022-11-15T17:35:12;12.00;99.90
25138;DHT22;13112;50.986;4.354;2022-11-15T17:37:38;12.00;99.90
25138;DHT22;13112;50.986;4.354;2022-11-15T17:40:04;12.00;99.90
25138;DHT22;13112;50.986;4.354;2022-11-15T17:42:30;12.00;99.90
25138;DHT22;13112;50.986;4.354;2022-11-15T17:44:56;12.00;99.90
25138;DHT22;13112;50.986;4.354;2022-11-15T17:47:22;12.00;99.90
25138;DHT22;13112;50.986;4.354;2022-11-15T17:49:48;12.00;99.90
25138;DHT22;13112;50.986;4.354;2022-11-15T17:52:13;12.00;99.90
25138;DHT22;13112;50.986;4.354;2022-11-15T17:54:39;12.00;99.90
25138;DHT22;13112;50.986;4.354;2022-11-15T17:57:04;11.90;99.90
25138;DHT22;13112;50.986;4.354;2022-11-15T17:59:30;11.90;99.90
25138;DHT22;13112;50.986;4.354;2022-11-15T18:01:56;11.90;99.90
25138;DHT22;13112;50.986;4.354;2022-11-15T18:04:21;11.90;99.90
25138;DHT22;13112;50.986;4.354;2022-11-15T18:06:53;11.90;99.90
25138;DHT22;13112;50.986;4.354;2022-11-15T18:09:19;11.90;99.90